createdAt,value
2022-10-23T00:01:21.334Z,8.48
2022-10-23T00:03:49.658Z,8.60
2022-10-23T00:06:17.590Z,7.88
2022-10-23T00:08:47.332Z,8.43
2022-10-23T00:11:18.988Z,8.77
2022-10-23T00:13:47.879Z,8.25
2022-10-23T00:16:17.260Z,8.38
2022-10-23T00:18:45.844Z,7.97
2022-10-23T00:21:15.661Z,7.47
2022-10-23T00:23:43.955Z,8.27
2022-10-23T00:26:15.743Z,7.20
2022-10-23T00:28:43.992Z,6.75
2022-10-23T00:31:12.363Z,6.88
2022-10-23T00:33:42.034Z,6.97
2022-10-23T00:36:12.759Z,6.22
2022-10-23T00:38:41.126Z,8.30
2022-10-23T00:41:15.308Z,7.15
2022-10-23T00:43:58.578Z,6.78
2022-10-23T00:46:26.630Z,7.20
2022-10-23T00:48:56.367Z,7.80
2022-10-23T00:51:25.494Z,7.55
2022-10-23T00:54:12.688Z,7.60
2022-10-23T00:56:48.426Z,7.80
2022-10-23T00:59:16.736Z,8.05
2022-10-23T01:01:44.905Z,7.38
2022-10-23T01:04:14.185Z,8.10
2022-10-23T01:06:51.968Z,7.78
2022-10-23T01:09:27.482Z,7.32
2022-10-23T01:12:02.017Z,7.70
2022-10-23T01:14:38.739Z,9.20
2022-10-23T01:17:10.559Z,7.55
2022-10-23T01:19:53.876Z,7.55
2022-10-23T01:22:38.486Z,7.80
2022-10-23T01:25:21.812Z,8.63
2022-10-23T01:27:54.336Z,7.45
2022-10-23T01:30:22.368Z,6.40
2022-10-23T01:32:54.801Z,5.85
2022-10-23T01:35:27.756Z,5.72
2022-10-23T01:38:07.608Z,6.25
2022-10-23T01:40:39.690Z,5.75
2022-10-23T01:43:16.509Z,7.25
2022-10-23T01:45:50.885Z,7.97
2022-10-23T01:48:24.788Z,7.30
2022-10-23T01:50:54.930Z,8.32
2022-10-23T01:53:23.738Z,8.23
2022-10-23T01:55:53.037Z,7.82
2022-10-23T01:58:24.096Z,9.30
2022-10-23T02:00:54.052Z,9.07
2022-10-23T02:03:23.196Z,9.90
2022-10-23T02:05:51.276Z,9.45
2022-10-23T02:08:19.436Z,11.32
2022-10-23T02:10:53.740Z,11.95
2022-10-23T02:13:29.551Z,10.30
2022-10-23T02:16:05.398Z,10.70
2022-10-23T02:18:41.831Z,12.07
2022-10-23T02:21:13.264Z,10.30
2022-10-23T02:23:50.415Z,11.13
2022-10-23T02:26:26.483Z,10.75
2022-10-23T02:29:00.389Z,13.38
2022-10-23T02:31:28.770Z,15.68
2022-10-23T02:33:56.777Z,12.13
2022-10-23T02:36:24.797Z,11.90
2022-10-23T02:38:52.653Z,12.07
2022-10-23T02:41:41.747Z,13.23
2022-10-23T02:44:24.062Z,10.77
2022-10-23T02:46:58.632Z,10.50
2022-10-23T02:49:32.871Z,11.13
2022-10-23T02:52:09.332Z,13.05
2022-10-23T02:54:50.099Z,12.48
2022-10-23T02:57:26.668Z,11.38
2022-10-23T03:00:04.351Z,15.02
2022-10-23T03:02:37.772Z,10.90
2022-10-23T03:05:09.771Z,12.20
2022-10-23T03:07:38.356Z,10.95
2022-10-23T03:10:07.251Z,11.93
2022-10-23T03:12:35.329Z,11.68
2022-10-23T03:15:05.084Z,10.93
2022-10-23T03:17:33.048Z,10.60
2022-10-23T03:20:01.090Z,11.73
2022-10-23T03:22:28.954Z,11.38
2022-10-23T03:24:56.844Z,12.57
2022-10-23T03:27:24.796Z,10.65
2022-10-23T03:29:52.807Z,10.50
2022-10-23T03:32:22.045Z,10.02
2022-10-23T03:34:50.028Z,10.65
2022-10-23T03:37:17.944Z,10.35
2022-10-23T03:39:45.889Z,9.70
2022-10-23T03:42:13.727Z,8.93
2022-10-23T03:44:41.636Z,8.77
2022-10-23T03:47:10.117Z,8.68
2022-10-23T03:49:39.914Z,9.80
2022-10-23T03:52:08.601Z,9.60
2022-10-23T03:54:36.792Z,9.55
2022-10-23T03:57:04.922Z,9.00
2022-10-23T03:59:33.133Z,12.13
2022-10-23T04:02:01.063Z,8.13
2022-10-23T04:04:29.035Z,8.90
2022-10-23T04:06:58.293Z,10.40
2022-10-23T04:09:26.490Z,7.90
2022-10-23T04:11:56.475Z,9.18
2022-10-23T04:14:24.327Z,10.60
2022-10-23T04:16:52.232Z,11.23
2022-10-23T04:19:20.204Z,9.55
2022-10-23T04:21:48.195Z,10.15
2022-10-23T04:24:17.475Z,9.85
2022-10-23T04:26:45.378Z,11.65
2022-10-23T04:29:13.275Z,9.35
2022-10-23T04:31:41.183Z,9.88
2022-10-23T04:34:09.130Z,10.65
2022-10-23T04:36:37.085Z,10.75
2022-10-23T04:39:05.114Z,8.68
2022-10-23T04:41:34.383Z,8.88
2022-10-23T04:44:02.294Z,8.98
2022-10-23T04:46:30.162Z,10.07
2022-10-23T04:48:58.025Z,11.07
2022-10-23T04:51:25.940Z,10.00
2022-10-23T04:53:53.860Z,10.40
2022-10-23T04:56:21.753Z,9.57
2022-10-23T04:58:51.541Z,9.38
2022-10-23T05:01:19.655Z,10.15
2022-10-23T05:03:47.601Z,9.00
2022-10-23T05:06:15.469Z,10.85
2022-10-23T05:08:43.392Z,9.73
2022-10-23T05:11:11.330Z,10.48
2022-10-23T05:13:39.275Z,11.70
2022-10-23T05:16:08.571Z,9.85
2022-10-23T05:18:41.699Z,8.00
2022-10-23T05:21:14.274Z,9.27
2022-10-23T05:23:43.334Z,10.60
2022-10-23T05:26:11.249Z,12.77
2022-10-23T05:28:39.120Z,9.85
2022-10-23T05:31:09.696Z,9.93
2022-10-23T05:33:38.825Z,9.82
2022-10-23T05:36:07.465Z,9.55
2022-10-23T05:38:37.209Z,10.57
2022-10-23T05:41:05.272Z,9.52
2022-10-23T05:43:33.171Z,9.60
2022-10-23T05:46:01.028Z,13.40
2022-10-23T05:48:34.686Z,9.00
2022-10-23T05:51:07.381Z,8.55
2022-10-23T05:53:38.689Z,10.35
2022-10-23T05:56:10.275Z,7.55
2022-10-23T05:58:38.112Z,9.02
2022-10-23T06:01:07.637Z,9.23
2022-10-23T06:03:37.866Z,9.57
2022-10-23T06:06:06.913Z,8.80
2022-10-23T06:08:35.728Z,8.50
2022-10-23T06:11:08.622Z,9.07
2022-10-23T06:13:36.505Z,9.77
2022-10-23T06:16:15.342Z,9.07
2022-10-23T06:18:46.009Z,9.07
2022-10-23T06:21:15.141Z,8.45
2022-10-23T06:23:44.879Z,8.90
2022-10-23T06:26:14.985Z,9.40
2022-10-23T06:28:43.898Z,8.18
2022-10-23T06:31:13.433Z,9.15
2022-10-23T06:33:41.663Z,8.80
2022-10-23T06:36:11.535Z,8.82
2022-10-23T06:38:40.705Z,8.50
2022-10-23T06:41:12.815Z,8.32
2022-10-23T06:43:40.682Z,7.53
2022-10-23T06:46:08.894Z,7.90
2022-10-23T06:48:37.131Z,7.45
2022-10-23T06:51:07.720Z,8.65
2022-10-23T06:53:39.033Z,8.65
2022-10-23T06:56:08.611Z,7.75
2022-10-23T06:58:38.114Z,8.13
2022-10-23T07:01:08.742Z,7.90
2022-10-23T07:03:36.835Z,8.30
2022-10-23T07:06:07.403Z,7.22
2022-10-23T07:08:38.220Z,8.52
2022-10-23T07:11:07.769Z,7.57
2022-10-23T07:13:36.985Z,7.70
2022-10-23T07:16:11.776Z,8.02
2022-10-23T07:18:39.641Z,7.35
2022-10-23T07:21:08.479Z,7.40
2022-10-23T07:23:37.767Z,7.40
2022-10-23T07:26:07.628Z,7.32
2022-10-23T07:28:35.557Z,8.43
2022-10-23T07:31:03.485Z,7.28
2022-10-23T07:33:31.396Z,6.97
2022-10-23T07:35:59.682Z,6.82
2022-10-23T07:38:28.018Z,6.88
2022-10-23T07:40:59.516Z,6.43
2022-10-23T07:43:27.893Z,6.43
2022-10-23T07:45:56.045Z,7.07
2022-10-23T07:48:27.343Z,6.80
2022-10-23T07:50:58.605Z,6.60
2022-10-23T07:53:27.014Z,6.40
2022-10-23T07:55:56.474Z,6.70
2022-10-23T07:58:27.070Z,6.60
2022-10-23T08:00:58.698Z,6.90
2022-10-23T08:03:27.291Z,6.57
2022-10-23T08:05:55.414Z,6.00
2022-10-23T08:08:23.869Z,5.90
2022-10-23T08:10:53.524Z,6.47
2022-10-23T08:13:21.848Z,6.28
2022-10-23T08:15:52.833Z,6.38
2022-10-23T08:18:20.899Z,6.50
2022-10-23T08:20:52.389Z,5.93
2022-10-23T08:23:21.153Z,6.28
2022-10-23T08:25:49.059Z,6.03
2022-10-23T08:28:17.033Z,5.80
2022-10-23T08:30:45.060Z,6.45
2022-10-23T08:33:14.298Z,5.40
2022-10-23T08:35:42.627Z,6.03
2022-10-23T08:38:11.977Z,5.90
2022-10-23T08:40:45.767Z,5.03
2022-10-23T08:43:21.005Z,5.38
2022-10-23T08:45:52.060Z,5.97
2022-10-23T08:48:33.926Z,5.75
2022-10-23T08:51:12.634Z,5.47
2022-10-23T08:53:47.353Z,5.57
2022-10-23T08:56:21.843Z,5.22
2022-10-23T08:58:55.208Z,5.53
2022-10-23T09:01:34.088Z,5.57
2022-10-23T09:04:04.758Z,5.13
2022-10-23T09:06:38.104Z,5.00
2022-10-23T09:09:28.629Z,5.20
2022-10-23T09:12:03.936Z,4.80
2022-10-23T09:14:59.340Z,4.90
2022-10-23T09:17:29.838Z,4.82
2022-10-23T09:20:11.851Z,4.47
2022-10-23T09:22:40.695Z,4.43
2022-10-23T09:25:11.719Z,4.35
2022-10-23T09:27:40.306Z,3.83
2022-10-23T09:30:09.918Z,4.28
2022-10-23T09:32:39.192Z,4.00
2022-10-23T09:35:22.679Z,3.95
2022-10-23T09:37:53.344Z,4.30
2022-10-23T09:40:29.278Z,3.75
2022-10-23T09:43:00.662Z,4.47
2022-10-23T09:45:31.963Z,3.72
2022-10-23T09:48:15.415Z,3.45
2022-10-23T09:50:53.648Z,3.42
2022-10-23T09:53:32.226Z,3.80
2022-10-23T09:56:02.664Z,3.70
2022-10-23T09:58:34.592Z,3.38
2022-10-23T10:01:03.505Z,3.55
2022-10-23T10:03:31.401Z,3.50
2022-10-23T10:06:02.281Z,3.55
2022-10-23T10:08:39.442Z,3.80
2022-10-23T10:11:16.458Z,3.80
2022-10-23T10:14:26.949Z,3.50
2022-10-23T10:17:01.959Z,3.15
2022-10-23T10:19:45.097Z,3.28
2022-10-23T10:22:27.100Z,3.55
2022-10-23T10:25:02.746Z,3.00
2022-10-23T10:27:41.403Z,3.10
2022-10-23T10:30:14.339Z,4.05
2022-10-23T10:32:48.186Z,3.20
2022-10-23T10:35:25.184Z,2.45
2022-10-23T10:38:21.724Z,1.92
2022-10-23T10:41:06.728Z,2.08
2022-10-23T10:43:45.016Z,2.25
2022-10-23T10:46:20.326Z,1.55
2022-10-23T10:48:54.113Z,1.70
2022-10-23T10:51:29.917Z,1.80
2022-10-23T10:54:17.200Z,1.70
2022-10-23T10:56:48.538Z,1.83
2022-10-23T10:59:22.529Z,1.73
2022-10-23T11:01:57.821Z,1.65
2022-10-23T11:04:33.851Z,1.70
2022-10-23T11:07:07.067Z,1.80
2022-10-23T11:09:36.347Z,2.00
2022-10-23T11:12:04.461Z,1.90
2022-10-23T11:14:34.224Z,1.90
2022-10-23T11:17:10.341Z,2.20
2022-10-23T11:19:44.904Z,2.00
2022-10-23T11:22:21.838Z,1.90
2022-10-23T11:25:34.631Z,1.80
2022-10-23T11:28:16.002Z,1.83
2022-10-23T11:31:00.630Z,1.55
2022-10-23T11:33:54.705Z,1.85
2022-10-23T11:36:40.274Z,2.25
2022-10-23T11:39:18.703Z,2.05
2022-10-23T11:41:54.084Z,1.90
2022-10-23T11:44:43.699Z,1.90
2022-10-23T11:47:30.345Z,1.80
2022-10-23T11:50:27.936Z,1.80
2022-10-23T11:53:13.645Z,2.00
2022-10-23T11:55:59.071Z,1.75
2022-10-23T11:58:41.472Z,1.90
2022-10-23T12:01:26.005Z,2.20
2022-10-23T12:03:57.919Z,2.55
2022-10-23T12:06:28.592Z,2.08
2022-10-23T12:09:00.454Z,1.92
2022-10-23T12:11:40.172Z,1.90
2022-10-23T12:14:26.988Z,2.13
2022-10-23T12:16:55.123Z,1.80
2022-10-23T12:19:25.751Z,1.83
2022-10-23T12:21:56.383Z,1.60
2022-10-23T12:24:55.360Z,1.63
2022-10-23T12:27:33.457Z,1.75
2022-10-23T12:30:22.938Z,1.67
2022-10-23T12:33:07.117Z,1.70
2022-10-23T12:35:51.911Z,1.88
2022-10-23T12:38:24.128Z,1.70
2022-10-23T12:40:54.315Z,1.95
2022-10-23T12:43:27.101Z,2.05
2022-10-23T12:45:58.574Z,2.03
2022-10-23T12:48:26.703Z,2.20
2022-10-23T12:50:56.924Z,2.03
2022-10-23T12:53:25.286Z,1.90
2022-10-23T12:58:30.052Z,2.38
2022-10-23T13:01:01.122Z,1.90
2022-10-23T13:03:31.363Z,2.20
2022-10-23T13:06:02.673Z,1.83
2022-10-23T13:08:35.057Z,2.10
2022-10-23T13:11:03.437Z,2.40
2022-10-23T13:13:31.379Z,1.98
2022-10-23T13:16:00.917Z,2.30
2022-10-23T13:18:28.784Z,2.13
2022-10-23T13:20:59.585Z,2.30
2022-10-23T13:23:32.279Z,2.75
2022-10-23T13:26:01.766Z,2.55
2022-10-23T13:28:33.188Z,2.17
2022-10-23T13:31:29.628Z,2.20
2022-10-23T13:34:20.898Z,2.30
2022-10-23T13:37:23.615Z,2.67
2022-10-23T13:40:01.515Z,2.55
2022-10-23T13:42:29.567Z,2.63
2022-10-23T13:44:57.511Z,2.17
2022-10-23T13:47:26.801Z,2.38
2022-10-23T13:49:54.675Z,2.20
2022-10-23T13:52:24.506Z,2.15
2022-10-23T13:54:52.341Z,2.30
2022-10-23T13:57:20.221Z,1.95
2022-10-23T13:59:48.139Z,2.20
2022-10-23T14:02:20.730Z,1.95
2022-10-23T14:04:51.054Z,2.35
2022-10-23T14:07:19.136Z,2.38
2022-10-23T14:09:47.448Z,2.00
2022-10-23T14:12:16.535Z,1.98
2022-10-23T14:14:44.402Z,1.70
2022-10-23T14:17:12.726Z,2.35
2022-10-23T14:19:40.651Z,1.70
2022-10-23T14:22:09.897Z,1.95
2022-10-23T14:24:37.759Z,1.90
2022-10-23T14:27:06.172Z,1.92
2022-10-23T14:29:34.084Z,2.30
2022-10-23T14:32:01.982Z,1.65
2022-10-23T14:34:29.909Z,1.80
2022-10-23T14:37:08.125Z,1.67
2022-10-23T14:39:37.927Z,1.80
2022-10-23T14:42:05.980Z,2.13
2022-10-23T14:44:33.905Z,1.75
2022-10-23T14:47:03.258Z,1.83
2022-10-23T14:49:31.399Z,1.77
2022-10-23T14:51:59.656Z,1.73
2022-10-23T14:54:29.462Z,2.00
2022-10-23T14:56:59.199Z,1.88
2022-10-23T14:59:27.045Z,2.70
2022-10-23T15:01:54.913Z,1.92
2022-10-23T15:04:23.000Z,2.83
2022-10-23T15:06:50.835Z,3.08
2022-10-23T15:09:19.966Z,2.13
2022-10-23T15:11:48.431Z,2.10
2022-10-23T15:14:17.939Z,2.70
2022-10-23T15:16:45.801Z,1.98
2022-10-23T15:19:18.426Z,2.15
2022-10-23T15:21:46.797Z,2.08
2022-10-23T15:24:14.784Z,2.03
2022-10-23T15:26:43.770Z,1.92
2022-10-23T15:29:12.595Z,2.08
2022-10-23T15:31:54.376Z,2.20
2022-10-23T15:34:25.038Z,2.20
2022-10-23T15:36:54.116Z,2.30
2022-10-23T15:39:24.327Z,2.08
2022-10-23T15:41:54.176Z,2.13
2022-10-23T15:44:23.904Z,2.55
2022-10-23T15:46:53.231Z,2.72
2022-10-23T15:49:21.570Z,3.63
2022-10-23T15:51:49.589Z,3.28
2022-10-23T15:54:19.239Z,3.30
2022-10-23T15:56:49.192Z,2.90
2022-10-23T15:59:18.171Z,3.03
2022-10-23T16:01:46.179Z,2.30
2022-10-23T16:04:16.109Z,2.90
2022-10-23T16:06:44.085Z,3.10
2022-10-23T16:09:12.362Z,2.95
2022-10-23T16:11:41.451Z,2.92
2022-10-23T16:14:13.146Z,3.20
2022-10-23T16:16:41.219Z,3.70
2022-10-23T16:19:09.045Z,3.80
2022-10-23T16:21:38.537Z,3.42
2022-10-23T16:24:09.098Z,2.90
2022-10-23T16:26:37.739Z,2.90
2022-10-23T16:29:08.098Z,3.05
2022-10-23T16:31:36.274Z,2.58
2022-10-23T16:34:05.968Z,3.30
2022-10-23T16:36:34.583Z,3.10
2022-10-23T16:39:05.546Z,3.30
2022-10-23T16:41:33.381Z,3.42
2022-10-23T16:44:01.489Z,3.25
2022-10-23T16:46:29.463Z,3.45
2022-10-23T16:48:57.621Z,2.60
2022-10-23T16:51:27.501Z,3.40
2022-10-23T16:53:55.442Z,3.08
2022-10-23T16:56:27.880Z,3.35
2022-10-23T16:58:56.130Z,2.90
2022-10-23T17:01:26.480Z,2.85
2022-10-23T17:03:56.042Z,2.90
2022-10-23T17:06:26.251Z,2.75
2022-10-23T17:08:55.246Z,2.90
2022-10-23T17:11:27.153Z,3.25
2022-10-23T17:13:59.331Z,3.40
2022-10-23T17:16:29.624Z,3.47
2022-10-23T17:18:57.738Z,4.30
2022-10-23T17:21:25.969Z,6.13
2022-10-23T17:23:54.626Z,4.43
2022-10-23T17:26:24.458Z,3.55
2022-10-23T17:28:52.305Z,4.47
2022-10-23T17:31:23.043Z,4.22
2022-10-23T17:33:54.859Z,4.22
2022-10-23T17:36:23.197Z,3.95
2022-10-23T17:38:51.623Z,3.75
2022-10-23T17:41:21.575Z,3.55
2022-10-23T17:43:51.435Z,3.80
2022-10-23T17:46:20.328Z,3.33
2022-10-23T17:48:48.172Z,3.22
2022-10-23T17:51:19.665Z,3.55
2022-10-23T17:53:49.224Z,4.18
2022-10-23T17:56:20.067Z,3.20
2022-10-23T17:58:48.118Z,4.20
2022-10-23T18:01:20.023Z,3.05
2022-10-23T18:03:48.189Z,4.18
2022-10-23T18:06:18.599Z,4.00
2022-10-23T18:08:46.775Z,4.57
2022-10-23T18:11:16.648Z,4.68
2022-10-23T18:13:44.765Z,4.43
2022-10-23T18:16:13.932Z,4.43
2022-10-23T18:18:44.488Z,4.00
2022-10-23T18:21:12.401Z,4.68
2022-10-23T18:23:40.512Z,4.60
2022-10-23T18:26:16.048Z,3.65
2022-10-23T18:28:45.086Z,4.75
2022-10-23T18:31:13.767Z,3.80
2022-10-23T18:33:43.640Z,4.68
2022-10-23T18:36:17.122Z,4.00
2022-10-23T18:38:45.048Z,4.60
2022-10-23T18:41:13.165Z,4.10
2022-10-23T18:43:44.211Z,4.40
2022-10-23T18:46:12.969Z,3.47
2022-10-23T18:48:41.047Z,3.80
2022-10-23T18:51:16.614Z,3.25
2022-10-23T18:53:46.982Z,3.63
2022-10-23T18:56:15.870Z,3.55
2022-10-23T18:58:43.737Z,3.75
2022-10-23T19:01:11.842Z,3.90
2022-10-23T19:03:40.012Z,6.32
2022-10-23T19:06:08.686Z,4.07
2022-10-23T19:08:38.892Z,7.80
2022-10-23T19:11:08.075Z,5.05
2022-10-23T19:13:39.395Z,4.07
2022-10-23T19:16:10.057Z,4.15
2022-10-23T19:18:41.211Z,3.83
2022-10-23T19:21:09.388Z,3.50
2022-10-23T19:23:42.192Z,3.40
2022-10-23T19:26:14.756Z,3.88
2022-10-23T19:28:46.273Z,3.35
2022-10-23T19:31:15.013Z,3.25
2022-10-23T19:33:42.930Z,2.92
2022-10-23T19:36:14.284Z,3.53
2022-10-23T19:38:44.141Z,3.60
2022-10-23T19:41:12.402Z,3.40
2022-10-23T19:43:40.257Z,3.45
2022-10-23T19:46:11.194Z,3.22
2022-10-23T19:48:42.519Z,3.30
2022-10-23T19:51:10.727Z,3.67
2022-10-23T19:53:41.338Z,4.03
2022-10-23T19:56:12.680Z,3.63
2022-10-23T19:58:41.353Z,4.25
2022-10-23T20:01:11.775Z,4.30
2022-10-23T20:03:40.599Z,3.58
2022-10-23T20:06:12.449Z,3.92
2022-10-23T20:08:41.220Z,5.85
2022-10-23T20:11:19.363Z,3.72
2022-10-23T20:13:48.816Z,4.38
2022-10-23T20:16:20.642Z,3.95
2022-10-23T20:18:49.165Z,4.35
2022-10-23T20:21:18.434Z,3.50
2022-10-23T20:23:46.789Z,3.75
2022-10-23T20:26:17.793Z,3.95
2022-10-23T20:28:47.118Z,4.93
2022-10-23T20:31:16.640Z,4.38
2022-10-23T20:33:45.078Z,3.55
2022-10-23T20:36:24.253Z,4.10
2022-10-23T20:38:52.435Z,4.05
2022-10-23T20:41:22.614Z,4.80
2022-10-23T20:43:50.799Z,4.15
2022-10-23T20:46:18.959Z,3.88
2022-10-23T20:48:47.088Z,4.93
2022-10-23T20:51:17.009Z,4.80
2022-10-23T20:53:46.115Z,4.60
2022-10-23T20:56:15.496Z,4.65
2022-10-23T20:58:44.747Z,4.13
2022-10-23T21:01:16.444Z,5.15
2022-10-23T21:03:45.154Z,4.03
2022-10-23T21:06:14.959Z,4.68
2022-10-23T21:08:43.048Z,5.40
2022-10-23T21:11:13.455Z,5.05
2022-10-23T21:13:42.426Z,5.07
2022-10-23T21:16:16.901Z,7.82
2022-10-23T21:18:46.680Z,4.80
2022-10-23T21:21:17.045Z,4.80
2022-10-23T21:23:45.257Z,6.28
2022-10-23T21:26:13.676Z,5.00
2022-10-23T21:28:47.352Z,5.00
2022-10-23T21:31:25.808Z,4.97
2022-10-23T21:33:54.271Z,5.47
2022-10-23T21:36:24.537Z,5.32
2022-10-23T21:38:54.630Z,5.25
2022-10-23T21:41:25.155Z,5.55
2022-10-23T21:43:54.660Z,5.60
2022-10-23T21:46:23.320Z,5.45
2022-10-23T21:48:52.912Z,5.50
2022-10-23T21:51:24.159Z,4.35
2022-10-23T21:53:53.361Z,5.20
2022-10-23T21:56:28.071Z,4.28
2022-10-23T21:58:56.230Z,3.78
2022-10-23T22:01:24.242Z,3.80
2022-10-23T22:03:53.751Z,4.47
2022-10-23T22:06:23.601Z,4.95
2022-10-23T22:08:52.975Z,4.45
2022-10-23T22:11:21.117Z,4.30
2022-10-23T22:13:49.229Z,4.22
2022-10-23T22:16:17.772Z,4.90
2022-10-23T22:18:45.996Z,4.95
2022-10-23T22:21:17.706Z,4.47
2022-10-23T22:23:46.151Z,4.50
2022-10-23T22:26:22.065Z,4.57
2022-10-23T22:28:50.260Z,4.78
2022-10-23T22:31:19.863Z,5.95
2022-10-23T22:33:48.111Z,5.88
2022-10-23T22:36:17.591Z,4.80
2022-10-23T22:38:45.800Z,4.97
2022-10-23T22:41:13.868Z,5.07
2022-10-23T22:43:41.949Z,5.72
2022-10-23T22:46:11.948Z,5.68
2022-10-23T22:48:40.437Z,5.18
2022-10-23T22:51:11.689Z,4.95
2022-10-23T22:53:41.270Z,4.88
2022-10-23T22:56:10.608Z,6.00
2022-10-23T22:58:38.864Z,4.70
2022-10-23T23:01:10.696Z,5.13
2022-10-23T23:03:39.410Z,5.43
2022-10-23T23:06:08.882Z,5.25
2022-10-23T23:08:37.967Z,5.55
2022-10-23T23:11:08.630Z,5.30
2022-10-23T23:13:36.563Z,5.55
2022-10-23T23:16:05.278Z,5.10
2022-10-23T23:18:33.558Z,4.72
2022-10-23T23:21:02.390Z,5.65
2022-10-23T23:23:30.590Z,4.97
2022-10-23T23:25:58.527Z,4.60
2022-10-23T23:28:27.751Z,5.20
2022-10-23T23:31:04.822Z,5.55
2022-10-23T23:33:32.779Z,4.90
2022-10-23T23:36:00.859Z,5.97
2022-10-23T23:38:28.709Z,5.35
2022-10-23T23:40:56.562Z,5.68
2022-10-23T23:43:24.409Z,5.78
2022-10-23T23:45:53.614Z,5.15
2022-10-23T23:48:21.459Z,5.57
2022-10-23T23:50:49.332Z,5.70
2022-10-23T23:53:19.041Z,5.57
2022-10-23T23:55:49.887Z,5.03
2022-10-23T23:58:28.523Z,6.55
